createdAt,value
2022-10-10T00:02:01.942Z,4.15
2022-10-10T00:04:28.475Z,7.93
2022-10-10T00:06:55.040Z,7.07
2022-10-10T00:09:21.554Z,7.30
2022-10-10T00:11:48.118Z,4.00
2022-10-10T00:14:14.607Z,4.85
2022-10-10T00:16:41.190Z,12.65
2022-10-10T00:19:07.813Z,3.75
2022-10-10T00:21:34.326Z,4.40
2022-10-10T00:24:00.858Z,6.43
2022-10-10T00:26:27.578Z,5.35
2022-10-10T00:28:54.120Z,5.05
2022-10-10T00:31:20.679Z,6.32
2022-10-10T00:33:47.582Z,8.45
2022-10-10T00:36:14.223Z,5.43
2022-10-10T00:38:41.071Z,6.10
2022-10-10T00:41:07.974Z,4.00
2022-10-10T00:43:34.710Z,4.97
2022-10-10T00:46:01.448Z,8.85
2022-10-10T00:48:29.806Z,9.07
2022-10-10T00:51:01.619Z,5.97
2022-10-10T00:53:34.744Z,5.88
2022-10-10T00:56:01.805Z,6.35
2022-10-10T00:58:28.305Z,10.70
2022-10-10T01:00:55.375Z,5.72
2022-10-10T01:03:22.070Z,5.57
2022-10-10T01:05:50.130Z,4.35
2022-10-10T01:08:17.282Z,5.05
2022-10-10T01:10:54.830Z,6.80
2022-10-10T01:13:40.200Z,6.22
2022-10-10T01:16:12.806Z,3.97
2022-10-10T01:18:47.190Z,3.88
2022-10-10T01:21:32.184Z,5.35
2022-10-10T01:23:58.870Z,6.70
2022-10-10T01:26:34.667Z,4.28
2022-10-10T01:29:07.400Z,3.60
2022-10-10T01:31:35.173Z,7.43
2022-10-10T01:34:17.025Z,9.07
2022-10-10T01:36:50.554Z,2.88
2022-10-10T01:39:25.968Z,6.85
2022-10-10T01:42:01.706Z,6.20
2022-10-10T01:44:28.174Z,11.30
2022-10-10T01:46:54.697Z,4.55
2022-10-10T01:49:24.952Z,8.85
2022-10-10T01:51:51.467Z,5.00
2022-10-10T01:54:17.950Z,5.05
2022-10-10T01:56:56.307Z,6.53
2022-10-10T01:59:22.775Z,9.82
2022-10-10T02:01:58.421Z,5.28
2022-10-10T02:04:48.184Z,6.43
2022-10-10T02:07:27.174Z,4.85
2022-10-10T02:09:55.131Z,3.97
2022-10-10T02:12:22.269Z,8.07
2022-10-10T02:14:51.640Z,7.32
2022-10-10T02:17:18.222Z,4.85
2022-10-10T02:19:46.816Z,4.20
2022-10-10T02:22:13.928Z,8.63
2022-10-10T02:24:40.754Z,5.32
2022-10-10T02:27:42.480Z,7.93
2022-10-10T02:30:09.700Z,10.23
2022-10-10T02:32:42.560Z,5.85
2022-10-10T02:35:12.953Z,3.55
2022-10-10T02:37:40.194Z,5.68
2022-10-10T02:40:07.555Z,9.25
2022-10-10T02:42:34.755Z,6.65
2022-10-10T02:45:01.858Z,7.35
2022-10-10T02:47:28.346Z,5.35
2022-10-10T02:49:54.897Z,4.82
2022-10-10T02:52:21.524Z,5.90
2022-10-10T02:54:48.069Z,4.60
2022-10-10T02:57:14.690Z,7.68
2022-10-10T02:59:41.531Z,4.10
2022-10-10T03:02:08.324Z,5.10
2022-10-10T03:04:36.072Z,7.13
2022-10-10T03:07:03.229Z,8.90
2022-10-10T03:09:29.878Z,5.95
2022-10-10T03:11:56.358Z,6.28
2022-10-10T03:14:22.855Z,3.38
2022-10-10T03:16:49.363Z,7.22
2022-10-10T03:19:15.957Z,6.57
2022-10-10T03:21:42.442Z,5.28
2022-10-10T03:24:09.009Z,5.25
2022-10-10T03:26:35.723Z,5.45
2022-10-10T03:29:03.379Z,6.10
2022-10-10T03:31:30.185Z,5.00
2022-10-10T03:33:56.668Z,5.60
2022-10-10T03:36:23.369Z,6.68
2022-10-10T03:38:49.958Z,7.28
2022-10-10T03:41:16.511Z,4.82
2022-10-10T03:43:42.979Z,3.65
2022-10-10T03:46:15.113Z,6.53
2022-10-10T03:48:42.646Z,3.60
2022-10-10T03:51:09.176Z,4.22
2022-10-10T03:53:35.713Z,9.45
2022-10-10T03:56:02.228Z,7.03
2022-10-10T03:58:28.735Z,3.97
2022-10-10T04:00:56.251Z,9.27
2022-10-10T04:03:23.389Z,7.28
2022-10-10T04:05:50.112Z,5.75
2022-10-10T04:08:17.049Z,7.25
2022-10-10T04:10:43.594Z,4.72
2022-10-10T04:13:10.105Z,4.15
2022-10-10T04:15:37.365Z,2.28
2022-10-10T04:18:04.160Z,5.75
2022-10-10T04:20:30.798Z,1.48
2022-10-10T04:22:57.363Z,5.93
2022-10-10T04:25:23.870Z,3.17
2022-10-10T04:27:50.398Z,5.70
2022-10-10T04:30:16.941Z,3.78
2022-10-10T04:32:43.431Z,2.88
2022-10-10T04:35:10.981Z,3.92
2022-10-10T04:37:37.549Z,2.25
2022-10-10T04:40:04.356Z,3.40
2022-10-10T04:42:30.856Z,3.38
2022-10-10T04:44:57.310Z,3.35
2022-10-10T04:47:24.122Z,3.67
2022-10-10T04:49:50.651Z,3.72
2022-10-10T04:52:17.196Z,2.45
2022-10-10T04:54:43.751Z,3.13
2022-10-10T04:57:10.233Z,6.82
2022-10-10T04:59:36.866Z,4.95
2022-10-10T05:02:03.527Z,5.47
2022-10-10T05:04:30.104Z,4.47
2022-10-10T05:06:56.787Z,4.50
2022-10-10T05:09:23.248Z,2.95
2022-10-10T05:11:49.792Z,6.90
2022-10-10T05:14:16.261Z,6.32
2022-10-10T05:16:42.746Z,4.22
2022-10-10T05:19:09.330Z,7.30
2022-10-10T05:21:35.833Z,7.30
2022-10-10T05:24:02.472Z,6.55
2022-10-10T05:26:29.001Z,2.25
2022-10-10T05:28:55.809Z,4.18
2022-10-10T05:31:22.272Z,7.88
2022-10-10T05:33:48.788Z,10.57
2022-10-10T05:36:15.327Z,8.30
2022-10-10T05:38:41.853Z,1.90
2022-10-10T05:41:09.018Z,4.05
2022-10-10T05:43:35.749Z,5.43
2022-10-10T05:46:02.834Z,4.30
2022-10-10T05:48:29.293Z,7.22
2022-10-10T05:50:57.050Z,4.63
2022-10-10T05:53:24.449Z,5.63
2022-10-10T05:55:51.023Z,4.80
2022-10-10T05:58:17.967Z,3.20
2022-10-10T06:00:45.585Z,5.30
2022-10-10T06:03:14.243Z,2.53
2022-10-10T06:05:41.229Z,7.10
2022-10-10T06:08:11.889Z,4.70
2022-10-10T06:10:40.902Z,5.18
2022-10-10T06:13:07.417Z,4.95
2022-10-10T06:15:34.069Z,6.00
2022-10-10T06:18:00.556Z,7.93
2022-10-10T06:20:27.055Z,2.15
2022-10-10T06:22:53.836Z,2.70
2022-10-10T06:25:38.807Z,2.60
2022-10-10T06:28:06.206Z,3.03
2022-10-10T06:30:34.828Z,2.42
2022-10-10T06:33:01.557Z,3.40
2022-10-10T06:35:28.241Z,5.95
2022-10-10T06:37:54.793Z,3.20
2022-10-10T06:40:21.244Z,5.70
2022-10-10T06:42:47.763Z,4.10
2022-10-10T06:45:14.378Z,6.15
2022-10-10T06:47:42.066Z,6.65
2022-10-10T06:50:08.982Z,4.25
2022-10-10T06:52:35.482Z,3.78
2022-10-10T06:55:01.979Z,4.40
2022-10-10T06:57:28.678Z,6.80
2022-10-10T06:59:55.143Z,3.22
2022-10-10T07:02:23.236Z,1.98
2022-10-10T07:04:49.732Z,4.60
2022-10-10T07:07:16.205Z,5.47
2022-10-10T07:09:42.736Z,4.90
2022-10-10T07:12:09.363Z,2.92
2022-10-10T07:14:36.026Z,4.60
2022-10-10T07:17:03.287Z,4.30
2022-10-10T07:19:29.949Z,4.75
2022-10-10T07:21:56.417Z,2.80
2022-10-10T07:24:22.991Z,4.78
2022-10-10T07:26:50.031Z,4.93
2022-10-10T07:29:16.603Z,4.57
2022-10-10T07:31:43.059Z,6.28
2022-10-10T07:34:09.529Z,6.25
2022-10-10T07:36:36.072Z,2.92
2022-10-10T07:39:02.574Z,5.22
2022-10-10T07:41:29.079Z,7.50
2022-10-10T07:43:56.130Z,7.05
2022-10-10T07:46:23.149Z,4.45
2022-10-10T07:48:49.799Z,4.88
2022-10-10T07:51:16.573Z,4.93
2022-10-10T07:53:44.425Z,8.35
2022-10-10T07:56:11.240Z,4.32
2022-10-10T07:58:38.170Z,3.42
2022-10-10T08:01:04.670Z,5.13
2022-10-10T08:03:31.173Z,8.02
2022-10-10T08:05:57.938Z,5.28
2022-10-10T08:08:24.513Z,5.78
2022-10-10T08:10:51.417Z,5.47
2022-10-10T08:13:17.920Z,3.60
2022-10-10T08:15:44.526Z,5.40
2022-10-10T08:18:11.017Z,3.58
2022-10-10T08:20:37.530Z,8.55
2022-10-10T08:23:04.002Z,6.50
2022-10-10T08:25:30.547Z,1.80
2022-10-10T08:27:57.054Z,5.63
2022-10-10T08:30:23.690Z,5.45
2022-10-10T08:32:50.401Z,3.17
2022-10-10T08:35:17.108Z,5.95
2022-10-10T08:37:43.584Z,6.53
2022-10-10T08:40:14.790Z,5.95
2022-10-10T08:42:51.856Z,7.22
2022-10-10T08:45:26.957Z,7.47
2022-10-10T08:47:59.379Z,5.63
2022-10-10T08:50:31.889Z,4.35
2022-10-10T08:53:01.393Z,6.43
2022-10-10T08:55:33.641Z,5.88
2022-10-10T08:58:04.063Z,7.00
2022-10-10T09:00:33.137Z,6.90
2022-10-10T09:03:01.084Z,5.38
2022-10-10T09:05:27.635Z,5.45
2022-10-10T09:08:09.618Z,4.88
2022-10-10T09:10:54.950Z,4.03
2022-10-10T09:13:35.986Z,5.93
2022-10-10T09:16:06.251Z,8.80
2022-10-10T09:18:41.694Z,6.28
2022-10-10T09:21:22.955Z,6.32
2022-10-10T09:24:08.396Z,7.03
2022-10-10T09:26:36.789Z,10.35
2022-10-10T09:29:32.876Z,5.85
2022-10-10T09:32:10.469Z,7.50
2022-10-10T09:34:41.802Z,6.10
2022-10-10T09:37:29.513Z,10.13
2022-10-10T09:40:15.099Z,7.03
2022-10-10T09:42:43.570Z,7.28
2022-10-10T09:45:14.385Z,15.82
2022-10-10T09:47:41.067Z,9.02
2022-10-10T09:50:07.757Z,14.07
2022-10-10T09:52:34.246Z,9.95
2022-10-10T09:55:02.408Z,9.38
2022-10-10T09:57:32.657Z,17.30
2022-10-10T10:00:03.679Z,19.38
2022-10-10T10:02:31.548Z,13.88
2022-10-10T10:04:58.052Z,12.52
2022-10-10T10:07:24.551Z,15.32
2022-10-10T10:09:52.115Z,11.05
2022-10-10T10:12:37.665Z,8.90
2022-10-10T10:15:05.793Z,13.23
2022-10-10T10:17:32.525Z,14.20
2022-10-10T10:19:59.049Z,8.02
2022-10-10T10:22:32.805Z,9.93
2022-10-10T10:24:59.947Z,12.10
2022-10-10T10:27:27.238Z,15.93
2022-10-10T10:29:58.239Z,12.98
2022-10-10T10:32:24.709Z,15.32
2022-10-10T10:35:10.095Z,13.82
2022-10-10T10:37:55.156Z,14.88
2022-10-10T10:40:27.557Z,13.20
2022-10-10T10:43:12.546Z,12.57
2022-10-10T10:45:42.073Z,17.30
2022-10-10T10:48:08.531Z,13.80
2022-10-10T10:50:43.531Z,12.95
2022-10-10T10:53:13.066Z,13.13
2022-10-10T10:55:43.726Z,19.33
2022-10-10T11:01:55.209Z,11.18
2022-10-10T11:05:20.939Z,15.30
2022-10-10T11:07:53.948Z,9.80
2022-10-10T11:10:34.479Z,11.50
2022-10-10T11:13:19.332Z,15.57
2022-10-10T11:16:05.937Z,8.02
2022-10-10T11:18:45.346Z,17.92
2022-10-10T11:21:15.974Z,12.52
2022-10-10T11:24:01.106Z,16.92
2022-10-10T11:26:31.957Z,10.40
2022-10-10T11:29:06.034Z,13.10
2022-10-10T11:31:45.608Z,10.23
2022-10-10T11:34:22.201Z,11.88
2022-10-10T11:36:48.978Z,13.85
2022-10-10T11:39:27.764Z,11.38
2022-10-10T11:42:03.267Z,12.88
2022-10-10T11:44:38.462Z,9.50
2022-10-10T11:47:14.431Z,11.00
2022-10-10T11:50:01.044Z,10.32
2022-10-10T11:52:34.966Z,9.98
2022-10-10T11:55:15.966Z,9.00
2022-10-10T11:57:45.697Z,6.55
2022-10-10T12:00:13.828Z,9.85
2022-10-10T12:02:41.296Z,11.35
2022-10-10T12:05:19.625Z,11.60
2022-10-10T12:07:48.890Z,6.85
2022-10-10T12:10:19.530Z,8.23
2022-10-10T12:12:48.359Z,9.38
2022-10-10T12:15:24.029Z,8.73
2022-10-10T12:17:50.553Z,15.48
2022-10-10T12:20:16.986Z,9.30
2022-10-10T12:22:43.804Z,15.35
2022-10-10T12:25:35.764Z,14.15
2022-10-10T12:28:22.589Z,13.57
2022-10-10T12:30:57.115Z,10.05
2022-10-10T12:33:33.723Z,14.57
2022-10-10T12:36:21.450Z,13.32
2022-10-10T12:39:03.390Z,13.65
2022-10-10T12:41:47.049Z,10.57
2022-10-10T12:44:24.969Z,10.20
2022-10-10T12:47:10.257Z,14.23
2022-10-10T12:49:36.907Z,11.13
2022-10-10T12:52:07.729Z,9.43
2022-10-10T12:54:38.578Z,11.32
2022-10-10T12:57:28.360Z,10.13
2022-10-10T12:59:57.643Z,9.48
2022-10-10T13:02:28.065Z,12.88
2022-10-10T13:04:59.071Z,8.55
2022-10-10T13:07:25.926Z,9.98
2022-10-10T13:09:53.571Z,5.43
2022-10-10T13:12:24.885Z,6.22
2022-10-10T13:14:51.606Z,7.18
2022-10-10T13:17:22.792Z,6.97
2022-10-10T13:19:49.498Z,5.97
2022-10-10T13:22:16.613Z,6.43
2022-10-10T13:24:43.694Z,8.10
2022-10-10T13:27:18.582Z,9.02
2022-10-10T13:29:45.194Z,7.95
2022-10-10T13:32:15.803Z,9.32
2022-10-10T13:34:44.182Z,8.15
2022-10-10T13:37:14.106Z,7.45
2022-10-10T13:39:41.704Z,8.68
2022-10-10T13:42:17.470Z,8.77
2022-10-10T13:44:51.641Z,9.80
2022-10-10T13:47:36.950Z,7.03
2022-10-10T13:50:03.949Z,8.15
2022-10-10T13:52:30.453Z,12.95
2022-10-10T13:55:13.535Z,6.25
2022-10-10T13:57:40.361Z,9.23
2022-10-10T14:00:14.184Z,11.65
2022-10-10T14:02:41.659Z,9.82
2022-10-10T14:05:09.378Z,12.07
2022-10-10T14:07:36.521Z,6.60
2022-10-10T14:10:07.847Z,7.53
2022-10-10T14:12:42.962Z,7.63
2022-10-10T14:15:28.120Z,8.30
2022-10-10T14:17:54.598Z,8.70
2022-10-10T14:20:21.113Z,6.70
2022-10-10T14:22:48.243Z,13.30
2022-10-10T14:25:14.745Z,8.50
2022-10-10T14:27:41.339Z,10.30
2022-10-10T14:30:08.053Z,7.82
2022-10-10T14:32:34.536Z,5.93
2022-10-10T14:35:01.001Z,7.57
2022-10-10T14:37:28.701Z,4.45
2022-10-10T14:39:55.617Z,10.60
2022-10-10T14:42:23.152Z,5.55
2022-10-10T14:44:49.668Z,8.05
2022-10-10T14:47:21.217Z,8.73
2022-10-10T14:49:48.080Z,5.50
2022-10-10T14:52:16.148Z,6.00
2022-10-10T14:54:42.833Z,6.43
2022-10-10T14:57:10.381Z,7.35
2022-10-10T14:59:48.342Z,4.05
2022-10-10T15:02:16.836Z,6.85
2022-10-10T15:04:43.354Z,8.20
2022-10-10T15:07:14.243Z,9.65
2022-10-10T15:09:47.634Z,6.53
2022-10-10T15:12:23.495Z,6.30
2022-10-10T15:14:50.061Z,4.72
2022-10-10T15:17:16.579Z,5.88
2022-10-10T15:19:43.146Z,7.90
2022-10-10T15:22:09.600Z,4.82
2022-10-10T15:24:36.261Z,5.07
2022-10-10T15:27:02.724Z,2.25
2022-10-10T15:29:29.268Z,5.93
2022-10-10T15:31:55.863Z,5.75
2022-10-10T15:34:23.166Z,8.32
2022-10-10T15:36:49.711Z,3.72
2022-10-10T15:39:16.492Z,3.50
2022-10-10T15:41:42.973Z,6.20
2022-10-10T15:44:16.479Z,7.43
2022-10-10T15:46:43.774Z,4.78
2022-10-10T15:49:10.454Z,5.93
2022-10-10T15:51:36.918Z,5.07
2022-10-10T15:54:03.816Z,6.32
2022-10-10T15:56:30.803Z,3.33
2022-10-10T15:58:57.911Z,4.35
2022-10-10T16:01:24.590Z,7.68
2022-10-10T16:03:51.286Z,6.15
2022-10-10T16:06:19.149Z,5.22
2022-10-10T16:08:46.020Z,4.25
2022-10-10T16:11:13.943Z,3.20
2022-10-10T16:13:41.421Z,4.63
2022-10-10T16:16:10.385Z,5.10
2022-10-10T16:18:40.338Z,5.68
2022-10-10T16:21:07.995Z,3.70
2022-10-10T16:23:34.982Z,5.55
2022-10-10T16:26:05.715Z,4.70
2022-10-10T16:28:32.787Z,3.92
2022-10-10T16:31:03.614Z,4.15
2022-10-10T16:33:34.356Z,3.80
2022-10-10T16:36:01.627Z,6.18
2022-10-10T16:38:28.192Z,4.78
2022-10-10T16:40:58.522Z,4.05
2022-10-10T16:43:25.183Z,4.15
2022-10-10T16:45:51.736Z,4.65
2022-10-10T16:48:18.422Z,4.43
2022-10-10T16:50:44.993Z,7.90
2022-10-10T16:53:12.305Z,3.50
2022-10-10T16:55:41.969Z,3.15
2022-10-10T16:58:09.359Z,1.52
2022-10-10T17:00:36.350Z,2.45
2022-10-10T17:03:03.448Z,3.08
2022-10-10T17:05:29.957Z,2.92
2022-10-10T17:07:56.519Z,5.07
2022-10-10T17:10:23.047Z,2.70
2022-10-10T17:12:49.570Z,2.75
2022-10-10T17:15:16.198Z,2.92
2022-10-10T17:17:42.658Z,2.67
2022-10-10T17:20:09.446Z,2.97
2022-10-10T17:22:36.251Z,1.83
2022-10-10T17:25:02.871Z,7.85
2022-10-10T17:27:29.370Z,5.55
2022-10-10T17:29:55.924Z,3.75
2022-10-10T17:32:22.437Z,1.88
2022-10-10T17:34:48.988Z,2.15
2022-10-10T17:37:15.542Z,3.53
2022-10-10T17:39:42.131Z,4.28
2022-10-10T17:42:08.679Z,4.22
2022-10-10T17:44:41.919Z,7.18
2022-10-10T17:47:11.836Z,8.35
2022-10-10T17:49:38.361Z,5.20
2022-10-10T17:52:04.910Z,3.92
2022-10-10T17:54:31.431Z,2.78
2022-10-10T17:56:57.909Z,4.40
2022-10-10T17:59:24.422Z,3.45
2022-10-10T18:01:50.945Z,3.95
2022-10-10T18:04:17.438Z,3.38
2022-10-10T18:06:43.905Z,9.13
2022-10-10T18:09:10.806Z,10.20
2022-10-10T18:11:37.316Z,8.32
2022-10-10T18:14:03.889Z,9.13
2022-10-10T18:16:32.985Z,8.85
2022-10-10T18:18:59.785Z,8.73
2022-10-10T18:21:26.764Z,11.10
2022-10-10T18:23:53.570Z,4.72
2022-10-10T18:26:21.797Z,6.15
2022-10-10T18:28:49.059Z,4.80
2022-10-10T18:31:17.021Z,3.33
2022-10-10T18:33:47.335Z,5.65
2022-10-10T18:36:14.934Z,6.00
2022-10-10T18:38:41.573Z,4.10
2022-10-10T18:41:15.144Z,3.35
2022-10-10T18:43:42.597Z,4.93
2022-10-10T18:46:10.325Z,13.57
2022-10-10T18:48:38.616Z,6.60
2022-10-10T18:51:07.072Z,8.20
2022-10-10T18:53:41.196Z,7.00
2022-10-10T18:56:08.124Z,6.28
2022-10-10T18:58:36.111Z,3.88
2022-10-10T19:01:04.470Z,2.22
2022-10-10T19:03:31.245Z,1.73
2022-10-10T19:05:57.877Z,6.60
2022-10-10T19:08:24.634Z,3.95
2022-10-10T19:10:51.419Z,6.90
2022-10-10T19:13:18.510Z,4.45
2022-10-10T19:15:45.775Z,8.30
2022-10-10T19:18:12.333Z,5.88
2022-10-10T19:20:39.834Z,4.00
2022-10-10T19:23:06.478Z,6.47
2022-10-10T19:25:36.977Z,6.57
2022-10-10T19:28:03.476Z,8.50
2022-10-10T19:30:30.130Z,4.50
2022-10-10T19:32:56.660Z,5.85
2022-10-10T19:35:23.119Z,8.50
2022-10-10T19:37:49.600Z,5.95
2022-10-10T19:40:16.146Z,7.35
2022-10-10T19:42:42.635Z,4.78
2022-10-10T19:45:09.418Z,6.75
2022-10-10T19:47:35.873Z,5.53
2022-10-10T19:50:02.367Z,7.50
2022-10-10T19:52:28.813Z,7.80
2022-10-10T19:54:55.311Z,15.07
2022-10-10T19:57:21.773Z,4.97
2022-10-10T19:59:48.287Z,3.25
2022-10-10T20:02:14.843Z,7.35
2022-10-10T20:04:41.300Z,2.33
2022-10-10T20:07:07.841Z,4.85
2022-10-10T20:09:34.284Z,8.10
2022-10-10T20:12:00.803Z,4.30
2022-10-10T20:14:27.294Z,3.30
2022-10-10T20:16:55.050Z,8.52
2022-10-10T20:19:21.507Z,8.35
2022-10-10T20:21:48.152Z,7.82
2022-10-10T20:24:14.631Z,7.78
2022-10-10T20:26:41.083Z,7.10
2022-10-10T20:29:08.078Z,4.50
2022-10-10T20:31:35.798Z,5.07
2022-10-10T20:34:02.689Z,6.03
2022-10-10T20:36:30.264Z,8.88
2022-10-10T20:38:58.033Z,6.15
2022-10-10T20:41:26.729Z,6.78
2022-10-10T20:44:00.513Z,7.55
2022-10-10T20:46:28.967Z,3.38
2022-10-10T20:48:56.133Z,5.22
2022-10-10T20:51:22.771Z,9.35
2022-10-10T20:53:56.049Z,5.63
2022-10-10T20:56:23.714Z,5.70
2022-10-10T20:58:50.186Z,5.97
2022-10-10T21:01:18.503Z,5.60
2022-10-10T21:03:46.383Z,7.70
2022-10-10T21:06:15.086Z,6.80
2022-10-10T21:08:41.994Z,7.05
2022-10-10T21:11:09.924Z,6.40
2022-10-10T21:13:37.448Z,4.70
2022-10-10T21:16:08.485Z,5.15
2022-10-10T21:18:34.966Z,7.80
2022-10-10T21:21:02.101Z,8.98
2022-10-10T21:23:30.085Z,4.10
2022-10-10T21:25:56.611Z,7.03
2022-10-10T21:28:23.170Z,7.18
2022-10-10T21:30:50.609Z,6.10
2022-10-10T21:33:19.955Z,6.47
2022-10-10T21:35:47.250Z,7.68
2022-10-10T21:38:13.770Z,11.10
2022-10-10T21:40:40.262Z,7.93
2022-10-10T21:43:06.826Z,9.13
2022-10-10T21:45:37.342Z,15.73
2022-10-10T21:48:04.402Z,8.15
2022-10-10T21:50:30.933Z,18.52
2022-10-10T21:52:57.602Z,9.05
2022-10-10T21:55:24.575Z,10.10
2022-10-10T21:57:51.379Z,10.82
2022-10-10T22:00:18.189Z,7.90
2022-10-10T22:02:45.735Z,9.85
2022-10-10T22:05:13.646Z,15.25
2022-10-10T22:07:41.047Z,17.13
2022-10-10T22:10:08.582Z,11.88
2022-10-10T22:12:35.066Z,14.13
2022-10-10T22:15:01.816Z,10.60
2022-10-10T22:17:28.373Z,7.45
2022-10-10T22:19:54.845Z,8.73
2022-10-10T22:22:21.308Z,6.82
2022-10-10T22:24:47.802Z,11.52
2022-10-10T22:27:14.331Z,7.78
2022-10-10T22:29:40.832Z,11.07
2022-10-10T22:32:07.327Z,8.48
2022-10-10T22:34:33.789Z,11.60
2022-10-10T22:37:00.482Z,13.40
2022-10-10T22:39:28.222Z,15.00
2022-10-10T22:41:54.783Z,8.15
2022-10-10T22:44:21.507Z,11.00
2022-10-10T22:46:47.996Z,9.48
2022-10-10T22:49:14.470Z,7.60
2022-10-10T22:51:40.986Z,6.18
2022-10-10T22:54:07.485Z,6.60
2022-10-10T22:56:34.016Z,8.73
2022-10-10T22:59:00.569Z,8.90
2022-10-10T23:01:27.279Z,9.07
2022-10-10T23:03:54.482Z,10.00
2022-10-10T23:06:20.937Z,5.70
2022-10-10T23:08:47.443Z,13.27
2022-10-10T23:11:13.963Z,4.22
2022-10-10T23:13:40.466Z,5.07
2022-10-10T23:16:07.836Z,7.70
2022-10-10T23:18:34.672Z,5.25
2022-10-10T23:21:01.314Z,9.32
2022-10-10T23:23:27.793Z,6.45
2022-10-10T23:25:54.268Z,7.97
2022-10-10T23:28:20.869Z,10.55
2022-10-10T23:30:48.333Z,7.82
2022-10-10T23:33:15.358Z,7.70
2022-10-10T23:35:41.837Z,11.65
2022-10-10T23:38:08.344Z,10.80
2022-10-10T23:40:35.007Z,5.78
2022-10-10T23:43:01.493Z,9.93
2022-10-10T23:45:28.017Z,8.90
2022-10-10T23:47:54.681Z,8.10
2022-10-10T23:50:21.170Z,9.05
2022-10-10T23:52:47.669Z,5.30
2022-10-10T23:55:14.115Z,3.42
2022-10-10T23:57:40.566Z,5.43
